createdAt,value
2017-09-27T02:22:20.685Z,99.4
2017-09-27T04:04:55.696Z,99.1
2017-09-27T04:08:52.024Z,99.1
2017-09-27T04:25:38.487Z,99.2
2017-09-27T04:34:30.739Z,99.2
2017-09-27T04:37:28.435Z,99.2
2017-09-27T04:42:24.523Z,99.2
2017-09-27T04:46:20.972Z,99.3
2017-09-27T04:48:19.532Z,99.2
2017-09-27T04:51:17.094Z,99.2
2017-09-27T04:53:15.275Z,99.2
2017-09-27T04:55:14.261Z,99.2
2017-09-27T04:59:10.329Z,99.2
2017-09-27T05:02:08.020Z,99.2
2017-09-27T05:03:06.941Z,99.2
2017-09-27T05:04:06.496Z,99.2
2017-09-27T05:07:04.060Z,99.3
2017-09-27T05:09:02.130Z,99.3
2017-09-27T05:10:01.179Z,99.3
2017-09-27T05:16:55.550Z,99.3
2017-09-27T05:18:53.732Z,99.3
2017-09-27T05:19:53.037Z,99.3
2017-09-27T05:22:50.605Z,99.4
2017-09-27T05:23:49.654Z,99.4
2017-09-27T05:27:46.654Z,99.4
2017-09-27T05:49:28.532Z,99.3
2017-09-27T05:50:27.581Z,99.3
2017-09-27T05:55:23.794Z,99.3
2017-09-27T05:56:22.584Z,99.3
2017-09-27T05:58:21.398Z,99.3
2017-09-27T05:59:20.212Z,99.3
2017-09-27T06:00:19.508Z,99.2
2017-09-27T06:01:18.682Z,99.2
2017-09-27T06:02:17.854Z,99.2
2017-09-27T06:03:16.901Z,99.2
2017-09-27T06:04:16.451Z,99.2
2017-09-27T06:04:46.940Z,99.2
2017-09-27T06:06:14.543Z,99.2
2017-09-27T06:07:13.874Z,99.3
2017-09-27T06:08:12.901Z,99.3
2017-09-27T06:09:12.072Z,99.3
2017-09-27T06:10:11.383Z,99.3
2017-09-27T06:11:10.430Z,99.2
2017-09-27T06:12:09.975Z,99.3
2017-09-27T06:13:09.026Z,99.3
2017-09-27T06:14:07.942Z,99.3
2017-09-27T06:15:07.247Z,99.3
2017-09-27T06:15:37.731Z,99.3
2017-09-27T06:16:08.099Z,99.3
2017-09-27T06:17:05.759Z,99.3
2017-09-27T06:18:05.194Z,99.3
2017-09-27T06:19:04.111Z,99.4
2017-09-27T06:20:03.297Z,99.4
2017-09-27T06:21:02.465Z,99.3
2017-09-27T06:22:01.768Z,99.4
2017-09-27T06:23:00.565Z,99.4
2017-09-27T06:25:58.593Z,99.4
2017-09-27T06:26:57.260Z,99.4
2017-09-27T06:27:56.939Z,99.4
2017-09-27T06:28:55.986Z,99.4
2017-09-27T06:29:55.029Z,99.4
2017-09-27T06:30:54.584Z,99.5
2017-09-27T06:31:53.386Z,99.4
2017-09-27T06:32:52.930Z,99.4
2017-09-27T06:33:51.978Z,99.4
2017-09-27T06:34:51.032Z,99.4
2017-09-27T06:35:50.338Z,99.4
2017-09-27T06:36:49.388Z,99.4
2017-09-27T06:37:48.563Z,99.4
2017-09-27T06:38:47.474Z,99.4
2017-09-27T06:39:46.974Z,99.4
2017-09-27T06:40:46.273Z,99.4
2017-09-27T06:43:43.839Z,99.4
2017-09-27T06:44:43.013Z,99.4
2017-09-27T06:45:42.183Z,99.3
2017-09-27T06:46:41.476Z,99.4
2017-09-27T06:47:11.714Z,99.4
2017-09-27T06:47:41.947Z,99.4
2017-09-27T06:48:39.606Z,99.5
2017-09-27T06:49:38.900Z,99.4
2017-09-27T06:50:37.959Z,99.4
2017-09-27T06:51:37.135Z,99.4
2017-09-27T06:52:36.440Z,99.4
2017-09-27T06:54:35.001Z,99.3
2017-09-27T06:55:05.483Z,99.3
2017-09-27T06:55:35.843Z,99.3
2017-09-27T06:56:06.463Z,99.3
2017-09-27T06:57:32.318Z,99.3
2017-09-27T06:58:02.549Z,99.3
2017-09-27T06:59:30.888Z,99.3
2017-09-27T07:00:29.810Z,99.3
2017-09-27T07:01:29.110Z,99.3
2017-09-27T07:02:28.162Z,99.3
2017-09-27T07:03:27.587Z,99.3
2017-09-27T07:04:27.006Z,99.4
2017-09-27T07:04:57.490Z,99.4
2017-09-27T07:05:28.142Z,99.4
2017-09-27T07:05:58.500Z,99.4
2017-09-27T07:06:28.859Z,99.4
2017-09-27T07:06:59.220Z,99.4
2017-09-27T07:07:29.707Z,99.3
2017-09-27T07:08:23.352Z,99.3
2017-09-27T07:08:53.838Z,99.3
2017-09-27T07:09:24.192Z,99.3
2017-09-27T07:10:21.853Z,99.3
2017-09-27T07:11:21.144Z,99.3
2017-09-27T07:12:20.444Z,99.3
2017-09-27T07:13:19.618Z,99.3
2017-09-27T07:17:16.567Z,99.3
2017-09-27T07:18:15.744Z,99.3
2017-09-27T07:19:14.665Z,99.3
2017-09-27T07:21:13.233Z,99.3
2017-09-27T07:22:12.419Z,99.3
2017-09-27T07:24:10.857Z,99.3
2017-09-27T07:25:09.909Z,99.3
2017-09-27T07:27:08.600Z,99.2
2017-09-27T07:28:07.518Z,99.2
2017-09-27T07:30:06.206Z,99.2
2017-09-27T07:32:04.509Z,99.2
2017-09-27T07:33:03.556Z,99.1
2017-09-27T07:34:02.976Z,98.9
2017-09-27T07:35:02.032Z,98.8
2017-09-27T07:36:01.209Z,98.8
2017-09-27T07:37:00.383Z,98.9
2017-09-27T07:37:30.997Z,98.9
2017-09-27T07:38:01.354Z,98.9
2017-09-27T07:38:31.466Z,98.9
2017-09-27T07:39:01.949Z,98.9
2017-09-27T07:39:32.188Z,98.9
2017-09-27T07:40:57.300Z,98.9
2017-09-27T07:42:55.866Z,98.9
2017-09-27T07:44:54.555Z,98.9
2017-09-27T07:45:53.486Z,98.9
2017-09-27T07:46:52.789Z,98.9
2017-09-27T07:47:51.963Z,98.9
2017-09-27T07:48:51.136Z,98.9
2017-09-27T07:49:50.675Z,98.8
2017-09-27T07:50:49.854Z,98.8
2017-09-27T07:51:48.525Z,98.8
2017-09-27T07:52:47.952Z,98.8
2017-09-27T07:53:47.250Z,98.7
2017-09-27T07:54:46.549Z,98.6
2017-09-27T07:55:45.862Z,98.6
2017-09-27T07:58:43.177Z,98.6
2017-09-27T07:59:42.472Z,98.5
2017-09-27T08:00:41.518Z,98.4
2017-09-27T08:01:40.685Z,98.4
2017-09-27T08:02:39.985Z,98.4
2017-09-27T08:03:39.165Z,98.3
2017-09-27T08:05:38.099Z,98.3
2017-09-27T08:06:36.885Z,96.8
2017-09-27T08:09:34.959Z,97.5
2017-09-27T08:10:33.881Z,97.3
2017-09-27T08:12:32.742Z,97.4
2017-09-27T08:13:31.919Z,97.2
2017-09-27T08:15:30.104Z,97
2017-09-27T08:16:29.397Z,97
2017-09-27T08:17:28.695Z,96.8
2017-09-27T08:18:27.616Z,96.8
2017-09-27T08:19:26.919Z,96.7
2017-09-27T08:20:26.232Z,96.6
2017-09-27T08:22:25.042Z,96.3
2017-09-27T08:23:23.840Z,96.1
2017-09-27T08:24:23.271Z,95.9
2017-09-27T08:26:21.831Z,95.7
2017-09-27T08:27:20.759Z,94.9
2017-09-27T08:28:19.925Z,91.6
2017-09-27T08:30:18.866Z,92.2
2017-09-27T08:31:17.920Z,92.5
2017-09-27T08:33:16.105Z,93.3
2017-09-27T08:34:15.533Z,93.3
2017-09-27T08:35:15.086Z,92.6
2017-09-27T08:37:13.393Z,90.8
2017-09-27T08:38:12.560Z,91
2017-09-27T08:40:10.877Z,89
2017-09-27T08:41:10.177Z,88
2017-09-27T08:43:08.609Z,89.6
2017-09-27T08:49:04.329Z,88.8
2017-09-27T08:53:01.405Z,89.4
2017-09-27T08:55:59.103Z,88.9
2017-09-27T08:56:58.270Z,88.8
2017-09-27T08:57:57.697Z,89.4
2017-09-27T09:14:45.036Z,85.9
2017-09-27T09:15:15.400Z,85.9
2017-09-27T09:28:34.384Z,86.8
2017-09-27T09:34:30.491Z,86.4
2017-09-27T09:35:29.287Z,86
2017-09-27T10:00:11.333Z,85.1
2017-09-27T10:01:10.511Z,85.1
2017-09-27T10:07:06.238Z,83.8
2017-09-27T10:08:05.283Z,83.7
2017-09-27T10:10:03.974Z,83.8
2017-09-27T10:11:03.276Z,82.7
2017-09-27T10:12:02.315Z,83.2
2017-09-27T10:13:01.993Z,80.6
2017-09-27T10:14:01.294Z,81.9
2017-09-27T10:14:31.656Z,81.9
2017-09-27T10:15:02.014Z,83.8
2017-09-27T10:15:59.807Z,83.7
2017-09-27T10:16:59.107Z,83.1
2017-09-27T10:17:58.186Z,80.9
2017-09-27T10:18:57.732Z,80.4
2017-09-27T10:19:57.027Z,82.2
2017-09-27T10:20:56.089Z,82.6
2017-09-27T10:21:55.262Z,82.4
2017-09-27T10:22:54.559Z,81.4
2017-09-27T10:23:54.244Z,80.9
2017-09-27T10:24:53.289Z,81.3
2017-09-27T10:25:24.024Z,81.3
2017-09-27T10:25:54.263Z,81.6
2017-09-27T10:27:50.822Z,80.7
2017-09-27T10:28:50.568Z,80.7
2017-09-27T10:29:49.629Z,80.1
2017-09-27T10:30:49.058Z,80.9
2017-09-27T10:31:48.221Z,82
2017-09-27T10:33:46.784Z,81.4
2017-09-27T10:35:45.470Z,81.7
2017-09-27T10:40:41.804Z,81.1
2017-09-27T10:42:40.490Z,78.3
2017-09-27T10:44:39.181Z,79.7
2017-09-27T10:45:38.227Z,80.1
2017-09-27T10:47:37.052Z,80.1
2017-09-27T10:50:34.623Z,81.3
2017-09-27T10:51:33.924Z,81.3
2017-09-27T10:52:33.093Z,80.7
2017-09-27T10:57:29.936Z,80.1
2017-09-27T10:58:00.164Z,80.1
2017-09-27T10:59:28.645Z,81.1
2017-09-27T11:06:23.964Z,82.2
2017-09-27T11:07:22.894Z,82.3
2017-09-27T11:07:53.447Z,82.3
2017-09-27T11:13:18.566Z,81.9
2017-09-27T11:14:18.121Z,82.2
2017-09-27T11:17:15.686Z,81.5
2017-09-27T11:18:14.993Z,81.9
2017-09-27T11:19:14.289Z,81.4
2017-09-27T11:20:13.595Z,82.1
2017-09-27T11:25:10.441Z,83.7
2017-09-27T11:31:06.297Z,83.6
2017-09-27T11:33:04.597Z,83.1
2017-09-27T11:36:02.667Z,82.6
2017-09-27T11:44:56.037Z,82.1
2017-09-27T11:45:55.585Z,82.2
2017-09-27T11:52:50.819Z,81.1
2017-09-27T11:57:47.408Z,78.9
2017-09-27T11:59:46.217Z,80.5
2017-09-27T12:00:45.274Z,80.1
2017-09-27T12:07:40.539Z,80.5
2017-09-27T12:09:38.975Z,81
2017-09-27T12:16:34.341Z,80.5
2017-09-27T12:22:29.938Z,78.2
2017-09-27T12:27:26.907Z,78.8
2017-09-27T12:29:25.227Z,79.2
2017-09-27T12:30:24.654Z,79.5
2017-09-27T12:34:22.233Z,78.5
2017-09-27T12:46:13.565Z,79.1
2017-09-27T12:46:44.055Z,79.1
2017-09-27T12:47:14.294Z,78.1
2017-09-27T12:47:44.552Z,78.1
2017-09-27T12:49:11.912Z,79.4
2017-09-27T12:53:09.236Z,79.2
2017-09-27T12:54:08.423Z,79.4
2017-09-27T12:56:06.980Z,80
2017-09-27T12:57:06.429Z,79.6
2017-09-27T12:58:05.611Z,80.4
2017-09-27T13:01:03.805Z,78.7
2017-09-27T13:02:03.362Z,79.5
2017-09-27T13:03:02.309Z,79.7
2017-09-27T13:04:01.734Z,80.5
2017-09-27T13:05:01.031Z,80.8
2017-09-27T13:06:59.714Z,79.4
2017-09-27T13:07:59.013Z,79.7
2017-09-27T13:08:58.182Z,79.8
2017-09-27T13:09:57.607Z,79.9
2017-09-27T13:11:56.418Z,80.6
2017-09-27T13:14:54.608Z,80
2017-09-27T13:15:53.782Z,79.7
2017-09-27T13:16:53.084Z,80.4
2017-09-27T13:17:52.388Z,79.5
2017-09-27T13:18:51.934Z,79.4
2017-09-27T13:19:51.239Z,77.9
2017-09-27T13:20:50.292Z,77.4
2017-09-27T13:22:49.229Z,79.2
2017-09-27T13:23:48.273Z,77.8
2017-09-27T13:26:46.614Z,77.4
2017-09-27T13:28:44.918Z,75.4
2017-09-27T13:29:44.346Z,75.5
2017-09-27T13:30:43.904Z,75.3
2017-09-27T13:31:42.831Z,73.6
2017-09-27T13:32:13.444Z,73.6
2017-09-27T13:32:44.059Z,74.4
2017-09-27T13:33:41.600Z,75.3
2017-09-27T13:34:41.279Z,74.7
2017-09-27T13:35:40.592Z,74.7
2017-09-27T13:36:39.896Z,75.6
2017-09-27T13:37:39.069Z,73.6
2017-09-27T13:38:38.365Z,72.5
2017-09-27T13:39:37.788Z,73.2
2017-09-27T13:40:37.344Z,75
2017-09-27T13:43:35.412Z,73.5
2017-09-27T13:44:34.708Z,74.4
2017-09-27T13:45:34.041Z,75.5
2017-09-27T13:47:32.849Z,74.3
2017-09-27T13:52:29.319Z,73.9
2017-09-27T13:53:28.756Z,73.2
2017-09-27T13:54:28.054Z,72.6
2017-09-27T13:55:27.360Z,72.1
2017-09-27T13:56:26.924Z,72.1
2017-09-27T13:57:26.216Z,72.2
2017-09-27T13:58:25.514Z,71.4
2017-09-27T14:04:21.869Z,71.2
2017-09-27T14:05:20.913Z,70.7
2017-09-27T14:06:20.468Z,71.5
2017-09-27T14:07:19.893Z,70.9
2017-09-27T14:08:19.073Z,72
2017-09-27T14:09:18.623Z,72.2
2017-09-27T14:10:17.806Z,71.5
2017-09-27T14:11:16.980Z,71.9
2017-09-27T14:12:16.536Z,71.1
2017-09-27T14:15:14.730Z,72.9
2017-09-27T14:19:12.494Z,73.6
2017-09-27T14:22:10.441Z,72.5
2017-09-27T14:26:07.533Z,73.3
2017-09-27T14:30:04.988Z,72.2
2017-09-27T14:34:02.571Z,73.9
2017-09-27T15:22:31.933Z,77.8
2017-09-27T16:40:40.899Z,85.2
2017-09-27T16:41:39.950Z,85.5
2017-09-27T16:48:35.320Z,86.3
2017-09-27T16:49:34.996Z,86.2
2017-09-27T16:50:34.173Z,86.5
2017-09-27T16:51:33.338Z,86.4
2017-09-27T16:53:31.773Z,86.5
2017-09-27T16:54:31.198Z,86.5
2017-09-27T16:55:30.755Z,86.5
2017-09-27T16:57:29.575Z,87.3
2017-09-27T17:01:26.665Z,88.1
2017-09-27T17:03:25.100Z,88.2
2017-09-27T17:09:21.339Z,88.6
2017-09-27T17:12:18.910Z,89
2017-09-27T17:13:18.202Z,89
2017-09-27T17:15:17.267Z,88.9
2017-09-27T17:16:16.322Z,89
2017-09-27T17:17:15.621Z,89
2017-09-27T17:18:15.165Z,89.3
2017-09-27T17:19:14.218Z,89.2
2017-09-27T17:20:13.647Z,89.2
2017-09-27T17:21:13.073Z,89.4
2017-09-27T17:22:12.124Z,89.4
2017-09-27T17:23:11.428Z,89.6
2017-09-27T17:24:10.854Z,89.7
2017-09-27T17:25:10.157Z,89.8
2017-09-27T17:26:09.203Z,90.2
2017-09-27T17:27:08.520Z,90.1
2017-09-27T17:28:08.206Z,90.3
2017-09-27T17:29:07.015Z,90.2
2017-09-27T17:30:06.692Z,90.2
2017-09-27T17:31:05.740Z,90.6
2017-09-27T17:32:05.047Z,90.5
2017-09-27T17:33:04.366Z,90.4
2017-09-27T17:34:03.796Z,90.3
2017-09-27T17:35:03.092Z,90.4
2017-09-27T17:37:01.901Z,90.6
2017-09-27T17:38:01.202Z,90.5
2017-09-27T17:39:00.508Z,90.3
2017-09-27T17:39:59.427Z,90.4
2017-09-27T17:40:58.853Z,90.4
2017-09-27T17:41:58.279Z,90.3
2017-09-27T17:42:57.245Z,90.5
2017-09-27T17:43:56.794Z,90.5
2017-09-27T17:44:55.969Z,90.4
2017-09-27T17:45:55.265Z,90.5
2017-09-27T17:46:54.572Z,90.4
2017-09-27T17:47:54.127Z,90.6
2017-09-27T17:48:53.301Z,90.9
2017-09-27T17:49:52.477Z,90.8
2017-09-27T17:50:51.769Z,91.3
2017-09-27T17:51:51.323Z,91.1
2017-09-27T17:52:50.618Z,91.3
2017-09-27T17:53:49.917Z,91.2
2017-09-27T17:54:48.961Z,91.3
2017-09-27T17:55:48.515Z,91.2
2017-09-27T17:56:47.942Z,91.4
2017-09-27T17:57:46.613Z,91.3
2017-09-27T17:58:45.905Z,91.2
2017-09-27T18:00:44.971Z,91.2
2017-09-27T18:02:43.277Z,91.4
2017-09-27T18:04:41.829Z,91.5
2017-09-27T18:05:41.257Z,91.5
2017-09-27T18:06:40.685Z,91.5
2017-09-27T18:07:40.110Z,91.7
2017-09-27T18:08:39.036Z,91.9
2017-09-27T18:09:38.467Z,91.9
2017-09-27T18:10:37.767Z,92
2017-09-27T18:11:37.192Z,92
2017-09-27T18:12:36.242Z,92.1
2017-09-27T18:14:34.927Z,92.1
2017-09-27T18:15:33.854Z,92.4
2017-09-27T18:17:32.546Z,92.2
2017-09-27T18:18:31.722Z,92.3
2017-09-27T18:19:31.149Z,92.4
2017-09-27T18:20:30.323Z,92.4
2017-09-27T18:21:29.502Z,92.4
2017-09-27T18:24:27.714Z,92.6
2017-09-27T18:25:27.141Z,92.7
2017-09-27T18:27:25.198Z,92.7
2017-09-27T18:28:24.868Z,92.6
2017-09-27T18:31:22.430Z,92.6
2017-09-27T18:32:21.988Z,92.5
2017-09-27T18:35:19.694Z,92.5
2017-09-27T18:39:17.036Z,92.8
2017-09-27T18:47:11.040Z,93.3
2017-09-27T19:49:24.673Z,93.9
2017-09-27T19:50:24.485Z,93.9
2017-09-27T19:52:22.671Z,93.9
2017-09-27T20:19:02.887Z,93.9
2017-09-27T20:20:02.070Z,93.8
2017-09-27T20:23:59.169Z,94
2017-09-27T20:24:58.595Z,94
2017-09-27T20:28:55.430Z,94
2017-09-27T20:37:48.822Z,94.4
2017-09-27T20:38:48.122Z,94.4
2017-09-27T20:41:45.562Z,94.5
2017-09-27T20:45:42.913Z,94.4
2017-09-27T20:50:39.126Z,94.6
2017-09-27T20:57:33.873Z,94.6
2017-09-27T21:03:29.355Z,94.3
2017-09-27T21:04:28.788Z,94.4
2017-09-27T21:17:18.715Z,94.4
2017-09-27T21:18:18.262Z,94.3
2017-09-27T21:19:17.699Z,94.3
2017-09-27T21:20:16.620Z,94.4
2017-09-27T21:21:16.054Z,94.4
2017-09-27T21:23:14.485Z,94.5
2017-09-27T21:24:13.536Z,94.5
2017-09-27T21:27:11.353Z,94.5
2017-09-27T21:28:10.793Z,94.4
2017-09-27T21:30:09.110Z,94.4
2017-09-27T21:32:07.541Z,94.5
2017-09-27T21:33:07.084Z,94.7
2017-09-27T21:34:06.128Z,94.6
2017-09-27T21:35:05.297Z,94.8
2017-09-27T21:36:04.724Z,94.9
2017-09-27T21:37:03.893Z,94.9
2017-09-27T21:40:01.703Z,94.8
2017-09-27T21:41:01.014Z,94.9
2017-09-27T21:41:59.972Z,94.9
2017-09-27T21:44:58.057Z,95
2017-09-27T21:45:57.229Z,95.1
2017-09-27T21:47:55.411Z,95
2017-09-27T21:48:55.089Z,95.1
2017-09-27T21:49:54.010Z,95
2017-09-27T21:50:53.557Z,95
2017-09-27T21:52:51.746Z,95
2017-09-27T21:53:51.287Z,95.1
2017-09-27T21:54:50.202Z,95.2
2017-09-27T21:55:49.502Z,95.2
2017-09-27T21:56:48.801Z,95.2
2017-09-27T21:57:47.977Z,95.2
2017-09-27T21:58:47.404Z,95.2
2017-09-27T22:00:46.082Z,95.2
2017-09-27T22:01:44.875Z,95.2
2017-09-27T22:02:44.176Z,95.1
2017-09-27T22:05:42.125Z,95
2017-09-27T22:06:41.428Z,95.2
2017-09-27T22:07:40.611Z,95.2
2017-09-27T22:09:38.802Z,95.1
2017-09-27T22:10:38.605Z,95.1
2017-09-27T22:11:37.667Z,95
2017-09-27T22:13:35.859Z,95.1
2017-09-27T22:15:34.795Z,95.4
2017-09-27T22:16:33.747Z,95.5
2017-09-27T22:17:33.187Z,95.4
2017-09-27T22:18:32.139Z,95.3
2017-09-27T22:19:31.316Z,95.3
2017-09-27T22:21:29.883Z,95.3
2017-09-27T22:22:29.073Z,95.3
2017-09-27T22:23:28.250Z,95.3
2017-09-27T22:24:27.806Z,95.3
2017-09-27T22:24:58.336Z,95.3
2017-09-27T22:25:28.840Z,95.3
2017-09-27T22:25:59.084Z,95.3
2017-09-27T22:26:29.701Z,95.3
2017-09-27T22:27:25.354Z,95.4
2017-09-27T22:28:24.411Z,95.4
2017-09-27T22:29:23.590Z,95.4
2017-09-27T22:31:22.412Z,95.5
2017-09-27T22:32:21.218Z,95.4
2017-09-27T22:33:20.530Z,95.5
2017-09-27T22:34:19.966Z,95.5
2017-09-27T22:34:50.508Z,95.5
2017-09-27T22:36:18.628Z,95.5
2017-09-27T22:36:48.737Z,95.5
2017-09-27T22:37:19.356Z,95.6
2017-09-27T22:37:49.464Z,95.6
2017-09-27T22:38:19.830Z,95.5
2017-09-27T22:38:49.940Z,95.5
2017-09-27T22:40:15.169Z,95.6
2017-09-27T22:41:14.485Z,95.7
2017-09-27T22:42:13.913Z,95.7
2017-09-27T22:43:13.337Z,95.7
2017-09-27T22:44:12.515Z,95.7
2017-09-27T22:45:11.687Z,95.7
2017-09-27T22:46:10.863Z,95.7
2017-09-27T22:47:09.787Z,95.7
2017-09-27T22:49:08.606Z,95.7
2017-09-27T22:50:07.790Z,95.9
2017-09-27T22:51:07.220Z,95.9
2017-09-27T22:52:06.023Z,95.9
2017-09-27T22:53:05.335Z,95.9
2017-09-27T22:54:04.512Z,95.9
2017-09-27T22:55:03.937Z,96
2017-09-27T22:56:03.372Z,96
2017-09-27T22:58:01.691Z,96
2017-09-27T22:59:00.870Z,96
2017-09-27T23:00:00.310Z,96
2017-09-27T23:01:58.246Z,96
2017-09-27T23:03:57.061Z,96
2017-09-27T23:05:55.632Z,96
2017-09-27T23:06:26.133Z,96
2017-09-27T23:06:56.387Z,96
2017-09-27T23:08:53.065Z,96
2017-09-27T23:09:52.370Z,96
2017-09-27T23:10:51.807Z,96
2017-09-27T23:11:50.983Z,95.9
2017-09-27T23:12:50.159Z,95.9
2017-09-27T23:13:49.468Z,95.9
2017-09-27T23:14:48.650Z,96
2017-09-27T23:15:47.699Z,95.9
2017-09-27T23:16:47.001Z,95.9
2017-09-27T23:17:17.242Z,95.9
2017-09-27T23:20:43.624Z,95.9
2017-09-27T23:21:42.928Z,95.9
2017-09-27T23:22:42.608Z,95.9
2017-09-27T23:23:41.408Z,95.9
2017-09-27T23:25:40.106Z,96
2017-09-27T23:27:38.544Z,96
2017-09-27T23:28:37.473Z,96
2017-09-27T23:31:35.298Z,96
2017-09-27T23:32:34.607Z,96
2017-09-27T23:33:33.659Z,96
2017-09-27T23:34:33.089Z,96
2017-09-27T23:35:32.271Z,96
2017-09-27T23:36:31.710Z,96
2017-09-27T23:37:30.921Z,96
2017-09-27T23:38:29.973Z,96
2017-09-27T23:39:29.284Z,96
2017-09-27T23:40:28.339Z,96
2017-09-27T23:41:27.385Z,96
2017-09-27T23:43:26.085Z,96
2017-09-27T23:44:25.266Z,96
2017-09-27T23:45:24.319Z,96
2017-09-27T23:46:23.497Z,96
2017-09-27T23:47:22.810Z,96
2017-09-27T23:50:20.502Z,96
2017-09-27T23:51:19.679Z,96
2017-09-27T23:52:18.746Z,96.1
2017-09-27T23:53:18.431Z,96
2017-09-27T23:54:17.484Z,96
2017-09-27T23:55:16.663Z,96.1
2017-09-27T23:57:14.973Z,96.1
